sensor_id;sensor_type;location;lat;lon;timestamp;pressure;altitude;pressure_sealevel;temperature;humidity
43824;BME280;29470;53.550;9.926;2022-07-06T00:02:43;101781.94;;;16.22;78.81
43824;BME280;29470;53.550;9.926;2022-07-06T00:07:46;101783.28;;;16.15;78.17
43824;BME280;29470;53.550;9.926;2022-07-06T00:12:49;101794.47;;;16.28;78.26
43824;BME280;29470;53.550;9.926;2022-07-06T00:17:54;101795.91;;;16.23;77.99
43824;BME280;29470;53.550;9.926;2022-07-06T00:22:56;101798.81;;;16.14;78.88
43824;BME280;29470;53.550;9.926;2022-07-06T00:28:00;101794.50;;;16.14;79.45
43824;BME280;29470;53.550;9.926;2022-07-06T00:33:04;101792.56;;;16.25;78.83
43824;BME280;29470;53.550;9.926;2022-07-06T00:38:07;101784.38;;;16.05;79.22
43824;BME280;29470;53.550;9.926;2022-07-06T00:43:10;101793.41;;;15.97;80.17
43824;BME280;29470;53.550;9.926;2022-07-06T00:48:14;101785.88;;;16.15;78.61
43824;BME280;29470;53.550;9.926;2022-07-06T00:53:17;101788.72;;;16.05;79.31
43824;BME280;29470;53.550;9.926;2022-07-06T00:58:20;101794.97;;;16.22;78.94
43824;BME280;29470;53.550;9.926;2022-07-06T01:03:25;101792.94;;;16.03;79.83
43824;BME280;29470;53.550;9.926;2022-07-06T01:08:28;101790.00;;;15.98;79.66
43824;BME280;29470;53.550;9.926;2022-07-06T01:13:32;101793.34;;;15.96;80.19
43824;BME280;29470;53.550;9.926;2022-07-06T01:18:37;101792.06;;;15.89;80.14
43824;BME280;29470;53.550;9.926;2022-07-06T01:23:44;101788.19;;;15.97;80.30
43824;BME280;29470;53.550;9.926;2022-07-06T01:28:50;101792.81;;;16.01;80.17
43824;BME280;29470;53.550;9.926;2022-07-06T01:33:56;101780.56;;;16.00;79.69
43824;BME280;29470;53.550;9.926;2022-07-06T01:39:00;101775.16;;;15.84;80.52
43824;BME280;29470;53.550;9.926;2022-07-06T01:44:04;101775.66;;;15.78;80.33
43824;BME280;29470;53.550;9.926;2022-07-06T01:49:07;101770.03;;;15.85;79.85
43824;BME280;29470;53.550;9.926;2022-07-06T01:54:11;101774.25;;;15.83;80.05
43824;BME280;29470;53.550;9.926;2022-07-06T01:59:15;101770.19;;;15.87;80.10
43824;BME280;29470;53.550;9.926;2022-07-06T02:04:18;101763.22;;;15.74;80.72
43824;BME280;29470;53.550;9.926;2022-07-06T02:09:23;101770.53;;;15.93;79.91
43824;BME280;29470;53.550;9.926;2022-07-06T02:14:25;101771.16;;;15.75;81.04
43824;BME280;29470;53.550;9.926;2022-07-06T02:19:28;101771.44;;;15.67;81.32
43824;BME280;29470;53.550;9.926;2022-07-06T02:24:33;101783.09;;;15.58;81.84
43824;BME280;29470;53.550;9.926;2022-07-06T02:29:35;101780.06;;;15.66;81.68
43824;BME280;29470;53.550;9.926;2022-07-06T02:34:40;101787.91;;;15.66;81.62
43824;BME280;29470;53.550;9.926;2022-07-06T02:39:44;101798.72;;;15.58;82.44
43824;BME280;29470;53.550;9.926;2022-07-06T02:44:47;101777.28;;;15.63;81.97
43824;BME280;29470;53.550;9.926;2022-07-06T02:49:50;101775.78;;;15.66;82.35
43824;BME280;29470;53.550;9.926;2022-07-06T02:54:56;101771.44;;;15.67;81.92
43824;BME280;29470;53.550;9.926;2022-07-06T03:00:00;101775.25;;;15.72;81.41
43824;BME280;29470;53.550;9.926;2022-07-06T03:05:05;101768.94;;;15.82;81.63
43824;BME280;29470;53.550;9.926;2022-07-06T03:10:10;101777.59;;;15.81;81.20
43824;BME280;29470;53.550;9.926;2022-07-06T03:15:14;101780.19;;;15.81;82.57
43824;BME280;29470;53.550;9.926;2022-07-06T03:20:19;101783.06;;;15.85;82.79
43824;BME280;29470;53.550;9.926;2022-07-06T03:25:24;101786.22;;;15.80;82.81
43824;BME280;29470;53.550;9.926;2022-07-06T03:30:28;101788.00;;;15.81;82.43
43824;BME280;29470;53.550;9.926;2022-07-06T03:35:32;101774.75;;;15.91;82.53
43824;BME280;29470;53.550;9.926;2022-07-06T03:40:38;101785.19;;;15.91;81.65
43824;BME280;29470;53.550;9.926;2022-07-06T03:45:41;101792.50;;;15.83;81.08
43824;BME280;29470;53.550;9.926;2022-07-06T03:50:44;101786.19;;;15.93;79.99
43824;BME280;29470;53.550;9.926;2022-07-06T03:55:49;101791.63;;;15.83;80.96
43824;BME280;29470;53.550;9.926;2022-07-06T04:01:06;101800.44;;;15.85;81.20
43824;BME280;29470;53.550;9.926;2022-07-06T04:06:09;101803.88;;;15.70;82.94
43824;BME280;29470;53.550;9.926;2022-07-06T04:11:14;101796.84;;;15.69;84.71
43824;BME280;29470;53.550;9.926;2022-07-06T04:16:17;101793.84;;;15.63;85.36
43824;BME280;29470;53.550;9.926;2022-07-06T04:21:20;101792.63;;;15.58;84.49
43824;BME280;29470;53.550;9.926;2022-07-06T04:26:25;101791.53;;;15.95;83.97
43824;BME280;29470;53.550;9.926;2022-07-06T04:31:31;101783.94;;;16.26;82.52
43824;BME280;29470;53.550;9.926;2022-07-06T04:36:34;101782.97;;;16.11;82.84
43824;BME280;29470;53.550;9.926;2022-07-06T04:41:39;101788.97;;;16.23;82.28
43824;BME280;29470;53.550;9.926;2022-07-06T04:46:42;101782.50;;;16.31;79.65
43824;BME280;29470;53.550;9.926;2022-07-06T04:51:45;101786.19;;;16.48;78.45
43824;BME280;29470;53.550;9.926;2022-07-06T04:56:50;101789.41;;;16.44;78.48
43824;BME280;29470;53.550;9.926;2022-07-06T05:01:53;101786.47;;;16.53;78.68
43824;BME280;29470;53.550;9.926;2022-07-06T05:06:56;101795.09;;;16.52;78.46
43824;BME280;29470;53.550;9.926;2022-07-06T05:12:03;101795.38;;;16.85;76.79
43824;BME280;29470;53.550;9.926;2022-07-06T05:17:06;101791.38;;;16.62;77.74
43824;BME280;29470;53.550;9.926;2022-07-06T05:22:09;101798.91;;;16.57;77.06
43824;BME280;29470;53.550;9.926;2022-07-06T05:27:13;101802.56;;;16.89;75.93
43824;BME280;29470;53.550;9.926;2022-07-06T05:32:16;101786.78;;;16.88;75.95
43824;BME280;29470;53.550;9.926;2022-07-06T05:37:20;101790.34;;;17.03;74.58
43824;BME280;29470;53.550;9.926;2022-07-06T05:42:24;101791.91;;;17.30;73.71
43824;BME280;29470;53.550;9.926;2022-07-06T05:47:27;101798.84;;;17.44;73.54
43824;BME280;29470;53.550;9.926;2022-07-06T05:52:56;101809.88;;;17.70;71.94
43824;BME280;29470;53.550;9.926;2022-07-06T05:58:01;101807.16;;;17.37;73.11
43824;BME280;29470;53.550;9.926;2022-07-06T06:03:06;101809.22;;;17.58;71.76
43824;BME280;29470;53.550;9.926;2022-07-06T06:08:09;101805.88;;;17.60;71.78
43824;BME280;29470;53.550;9.926;2022-07-06T06:13:14;101804.53;;;17.22;72.79
43824;BME280;29470;53.550;9.926;2022-07-06T06:18:17;101818.03;;;17.00;75.23
43824;BME280;29470;53.550;9.926;2022-07-06T06:23:21;101824.66;;;16.94;75.00
43824;BME280;29470;53.550;9.926;2022-07-06T06:28:25;101823.91;;;17.11;73.61
43824;BME280;29470;53.550;9.926;2022-07-06T06:33:28;101818.22;;;17.18;70.08
43824;BME280;29470;53.550;9.926;2022-07-06T06:38:31;101815.53;;;17.31;69.47
43824;BME280;29470;53.550;9.926;2022-07-06T06:43:36;101815.91;;;17.52;68.55
43824;BME280;29470;53.550;9.926;2022-07-06T06:48:45;101825.00;;;17.91;67.64
43824;BME280;29470;53.550;9.926;2022-07-06T06:53:48;101823.78;;;18.47;65.76
43824;BME280;29470;53.550;9.926;2022-07-06T06:58:53;101829.25;;;18.52;65.14
43824;BME280;29470;53.550;9.926;2022-07-06T07:04:15;101831.56;;;18.79;64.07
43824;BME280;29470;53.550;9.926;2022-07-06T07:09:19;101832.63;;;18.82;63.35
43824;BME280;29470;53.550;9.926;2022-07-06T07:14:23;101845.22;;;18.90;63.65
43824;BME280;29470;53.550;9.926;2022-07-06T07:19:26;101837.13;;;18.85;64.47
43824;BME280;29470;53.550;9.926;2022-07-06T07:24:29;101844.47;;;18.43;64.84
43824;BME280;29470;53.550;9.926;2022-07-06T07:29:33;101846.75;;;17.90;68.42
43824;BME280;29470;53.550;9.926;2022-07-06T07:34:36;101857.28;;;17.30;71.28
43824;BME280;29470;53.550;9.926;2022-07-06T07:39:38;101857.69;;;17.07;73.34
43824;BME280;29470;53.550;9.926;2022-07-06T07:44:43;101865.28;;;16.89;75.10
43824;BME280;29470;53.550;9.926;2022-07-06T07:49:46;101863.47;;;16.88;76.93
43824;BME280;29470;53.550;9.926;2022-07-06T07:54:48;101865.81;;;16.55;80.28
43824;BME280;29470;53.550;9.926;2022-07-06T08:00:13;101865.34;;;16.34;79.07
43824;BME280;29470;53.550;9.926;2022-07-06T08:05:17;101865.16;;;16.73;74.00
43824;BME280;29470;53.550;9.926;2022-07-06T08:10:20;101871.06;;;17.12;73.85
43824;BME280;29470;53.550;9.926;2022-07-06T08:15:24;101875.34;;;17.12;74.32
43824;BME280;29470;53.550;9.926;2022-07-06T08:20:27;101883.44;;;17.01;74.60
43824;BME280;29470;53.550;9.926;2022-07-06T08:25:31;101892.06;;;16.72;78.38
43824;BME280;29470;53.550;9.926;2022-07-06T08:30:35;101895.13;;;16.51;81.17
43824;BME280;29470;53.550;9.926;2022-07-06T08:35:38;101893.69;;;16.14;82.29
43824;BME280;29470;53.550;9.926;2022-07-06T08:40:43;101877.41;;;16.74;82.38
43824;BME280;29470;53.550;9.926;2022-07-06T08:45:53;101871.97;;;17.28;78.01
43824;BME280;29470;53.550;9.926;2022-07-06T08:50:57;101873.38;;;17.98;72.44
43824;BME280;29470;53.550;9.926;2022-07-06T08:56:01;101881.59;;;18.50;72.13
43824;BME280;29470;53.550;9.926;2022-07-06T09:01:05;101887.97;;;18.72;72.57
43824;BME280;29470;53.550;9.926;2022-07-06T09:06:08;101890.41;;;19.01;71.17
43824;BME280;29470;53.550;9.926;2022-07-06T09:11:12;101892.88;;;19.14;71.04
43824;BME280;29470;53.550;9.926;2022-07-06T09:16:17;101889.25;;;19.81;68.36
43824;BME280;29470;53.550;9.926;2022-07-06T09:21:39;101884.72;;;19.95;66.53
43824;BME280;29470;53.550;9.926;2022-07-06T09:26:44;101879.88;;;20.60;65.99
43824;BME280;29470;53.550;9.926;2022-07-06T09:31:57;101880.31;;;21.70;61.04
43824;BME280;29470;53.550;9.926;2022-07-06T09:37:02;101893.59;;;20.73;62.93
43824;BME280;29470;53.550;9.926;2022-07-06T09:42:07;101886.97;;;19.71;65.22
43824;BME280;29470;53.550;9.926;2022-07-06T09:47:12;101874.78;;;19.71;64.41
43824;BME280;29470;53.550;9.926;2022-07-06T09:52:16;101876.41;;;19.69;63.44
43824;BME280;29470;53.550;9.926;2022-07-06T09:57:20;101890.16;;;19.82;64.61
43824;BME280;29470;53.550;9.926;2022-07-06T10:02:26;101882.84;;;20.49;64.48
43824;BME280;29470;53.550;9.926;2022-07-06T10:07:30;101888.25;;;21.30;61.05
43824;BME280;29470;53.550;9.926;2022-07-06T10:12:33;101888.19;;;21.70;59.16
43824;BME280;29470;53.550;9.926;2022-07-06T10:17:39;101883.41;;;20.99;61.16
43824;BME280;29470;53.550;9.926;2022-07-06T10:22:43;101877.34;;;19.88;59.76
43824;BME280;29470;53.550;9.926;2022-07-06T10:27:47;101882.84;;;18.74;66.34
43824;BME280;29470;53.550;9.926;2022-07-06T10:32:52;101889.56;;;18.05;70.75
43824;BME280;29470;53.550;9.926;2022-07-06T10:38:04;101896.78;;;17.49;72.39
43824;BME280;29470;53.550;9.926;2022-07-06T10:43:09;101895.50;;;16.71;76.55
43824;BME280;29470;53.550;9.926;2022-07-06T10:48:20;101888.16;;;16.23;78.87
43824;BME280;29470;53.550;9.926;2022-07-06T10:53:25;101894.16;;;16.35;76.66
43824;BME280;29470;53.550;9.926;2022-07-06T11:04:07;101886.19;;;17.18;76.49
43824;BME280;29470;53.550;9.926;2022-07-06T11:09:11;101875.38;;;17.87;75.20
43824;BME280;29470;53.550;9.926;2022-07-06T11:14:17;101875.09;;;18.44;72.77
43824;BME280;29470;53.550;9.926;2022-07-06T11:19:22;101877.16;;;18.82;68.82
43824;BME280;29470;53.550;9.926;2022-07-06T11:24:28;101877.59;;;19.76;67.15
43824;BME280;29470;53.550;9.926;2022-07-06T11:29:33;101877.50;;;20.47;67.09
43824;BME280;29470;53.550;9.926;2022-07-06T11:34:41;101869.84;;;20.52;63.06
43824;BME280;29470;53.550;9.926;2022-07-06T11:39:45;101869.28;;;20.01;64.41
43824;BME280;29470;53.550;9.926;2022-07-06T11:44:49;101865.97;;;19.71;66.48
43824;BME280;29470;53.550;9.926;2022-07-06T11:49:53;101859.47;;;19.81;66.40
43824;BME280;29470;53.550;9.926;2022-07-06T11:54:57;101858.16;;;20.07;65.01
43824;BME280;29470;53.550;9.926;2022-07-06T12:00:00;101854.53;;;20.43;62.26
43824;BME280;29470;53.550;9.926;2022-07-06T12:05:28;101835.00;;;20.36;58.00
43824;BME280;29470;53.550;9.926;2022-07-06T12:10:32;101836.81;;;20.57;57.24
43824;BME280;29470;53.550;9.926;2022-07-06T12:15:36;101826.34;;;20.39;57.03
43824;BME280;29470;53.550;9.926;2022-07-06T12:20:40;101822.94;;;20.79;56.96
43824;BME280;29470;53.550;9.926;2022-07-06T12:25:43;101827.00;;;20.92;55.28
43824;BME280;29470;53.550;9.926;2022-07-06T12:30:46;101816.72;;;21.18;53.97
43824;BME280;29470;53.550;9.926;2022-07-06T12:35:50;101817.94;;;21.26;50.56
43824;BME280;29470;53.550;9.926;2022-07-06T12:40:53;101818.00;;;21.49;50.62
43824;BME280;29470;53.550;9.926;2022-07-06T12:45:56;101813.69;;;21.93;49.98
43824;BME280;29470;53.550;9.926;2022-07-06T12:51:00;101807.34;;;22.11;48.21
43824;BME280;29470;53.550;9.926;2022-07-06T12:56:10;101801.28;;;22.14;50.32
43824;BME280;29470;53.550;9.926;2022-07-06T13:01:14;101800.94;;;22.74;46.59
43824;BME280;29470;53.550;9.926;2022-07-06T13:06:29;101794.38;;;22.40;47.21
43824;BME280;29470;53.550;9.926;2022-07-06T13:11:31;101797.31;;;21.58;48.84
43824;BME280;29470;53.550;9.926;2022-07-06T13:16:35;101788.06;;;21.89;46.52
43824;BME280;29470;53.550;9.926;2022-07-06T13:21:39;101798.78;;;21.71;44.29
43824;BME280;29470;53.550;9.926;2022-07-06T13:26:42;101785.66;;;22.18;46.55
43824;BME280;29470;53.550;9.926;2022-07-06T13:31:46;101789.22;;;21.96;48.48
43824;BME280;29470;53.550;9.926;2022-07-06T13:36:50;101778.72;;;21.54;48.17
43824;BME280;29470;53.550;9.926;2022-07-06T13:41:53;101788.22;;;21.29;48.78
43824;BME280;29470;53.550;9.926;2022-07-06T13:46:56;101777.31;;;21.19;47.94
43824;BME280;29470;53.550;9.926;2022-07-06T13:52:00;101764.34;;;21.67;45.37
43824;BME280;29470;53.550;9.926;2022-07-06T13:57:05;101763.81;;;21.75;46.66
43824;BME280;29470;53.550;9.926;2022-07-06T14:02:08;101764.47;;;22.15;46.68
43824;BME280;29470;53.550;9.926;2022-07-06T14:07:14;101760.53;;;22.28;42.44
43824;BME280;29470;53.550;9.926;2022-07-06T14:12:21;101770.06;;;22.00;42.30
43824;BME280;29470;53.550;9.926;2022-07-06T14:17:26;101757.13;;;22.54;42.68
43824;BME280;29470;53.550;9.926;2022-07-06T14:22:30;101757.66;;;22.45;43.02
43824;BME280;29470;53.550;9.926;2022-07-06T14:27:33;101759.91;;;22.58;42.48
43824;BME280;29470;53.550;9.926;2022-07-06T14:32:36;101765.41;;;22.17;42.72
43824;BME280;29470;53.550;9.926;2022-07-06T14:37:40;101759.88;;;21.64;43.60
43824;BME280;29470;53.550;9.926;2022-07-06T14:42:43;101761.59;;;21.42;44.37
43824;BME280;29470;53.550;9.926;2022-07-06T14:47:46;101771.53;;;21.49;44.74
43824;BME280;29470;53.550;9.926;2022-07-06T14:52:51;101756.22;;;21.83;44.19
43824;BME280;29470;53.550;9.926;2022-07-06T14:57:54;101762.00;;;22.20;43.58
43824;BME280;29470;53.550;9.926;2022-07-06T15:02:57;101762.78;;;22.42;44.06
43824;BME280;29470;53.550;9.926;2022-07-06T15:08:01;101758.25;;;22.37;42.75
43824;BME280;29470;53.550;9.926;2022-07-06T15:13:04;101752.13;;;22.39;42.26
43824;BME280;29470;53.550;9.926;2022-07-06T15:18:07;101744.13;;;21.88;44.18
43824;BME280;29470;53.550;9.926;2022-07-06T15:23:12;101741.69;;;21.49;45.42
43824;BME280;29470;53.550;9.926;2022-07-06T15:28:15;101739.38;;;21.36;46.15
43824;BME280;29470;53.550;9.926;2022-07-06T15:33:17;101738.56;;;20.94;47.19
43824;BME280;29470;53.550;9.926;2022-07-06T15:38:22;101737.91;;;20.79;47.78
43824;BME280;29470;53.550;9.926;2022-07-06T15:43:25;101735.75;;;20.70;48.60
43824;BME280;29470;53.550;9.926;2022-07-06T15:48:31;101731.09;;;21.26;47.44
43824;BME280;29470;53.550;9.926;2022-07-06T15:53:36;101720.38;;;21.87;47.44
43824;BME280;29470;53.550;9.926;2022-07-06T15:58:40;101714.06;;;22.30;45.94
43824;BME280;29470;53.550;9.926;2022-07-06T16:03:43;101696.97;;;22.68;44.89
43824;BME280;29470;53.550;9.926;2022-07-06T16:08:48;101697.69;;;22.15;45.57
43824;BME280;29470;53.550;9.926;2022-07-06T16:13:50;101684.41;;;21.87;45.59
43824;BME280;29470;53.550;9.926;2022-07-06T16:18:57;101686.00;;;21.61;44.58
43824;BME280;29470;53.550;9.926;2022-07-06T16:24:01;101680.28;;;21.94;44.11
43824;BME280;29470;53.550;9.926;2022-07-06T16:29:04;101670.84;;;22.01;44.69
43824;BME280;29470;53.550;9.926;2022-07-06T16:34:07;101664.84;;;22.05;44.72
43824;BME280;29470;53.550;9.926;2022-07-06T16:39:11;101656.22;;;21.85;45.05
43824;BME280;29470;53.550;9.926;2022-07-06T16:44:14;101656.13;;;21.38;45.33
43824;BME280;29470;53.550;9.926;2022-07-06T16:49:17;101651.97;;;21.20;45.39
43824;BME280;29470;53.550;9.926;2022-07-06T16:54:21;101644.25;;;21.25;45.90
43824;BME280;29470;53.550;9.926;2022-07-06T16:59:24;101640.88;;;21.06;46.75
43824;BME280;29470;53.550;9.926;2022-07-06T17:04:27;101633.09;;;21.09;47.68
43824;BME280;29470;53.550;9.926;2022-07-06T17:09:31;101619.25;;;21.13;47.64
43824;BME280;29470;53.550;9.926;2022-07-06T17:14:34;101610.81;;;20.99;47.44
43824;BME280;29470;53.550;9.926;2022-07-06T17:19:38;101602.03;;;21.22;47.69
43824;BME280;29470;53.550;9.926;2022-07-06T17:24:42;101603.50;;;21.38;47.10
43824;BME280;29470;53.550;9.926;2022-07-06T17:29:45;101603.59;;;21.39;46.98
43824;BME280;29470;53.550;9.926;2022-07-06T17:34:48;101600.22;;;20.98;48.51
43824;BME280;29470;53.550;9.926;2022-07-06T17:39:52;101603.44;;;20.90;49.53
43824;BME280;29470;53.550;9.926;2022-07-06T17:44:55;101601.97;;;20.55;50.33
43824;BME280;29470;53.550;9.926;2022-07-06T17:49:58;101598.69;;;20.39;51.41
43824;BME280;29470;53.550;9.926;2022-07-06T17:55:02;101600.59;;;20.22;51.99
43824;BME280;29470;53.550;9.926;2022-07-06T18:00:06;101599.13;;;20.09;52.68
43824;BME280;29470;53.550;9.926;2022-07-06T18:05:10;101590.66;;;19.95;52.89
43824;BME280;29470;53.550;9.926;2022-07-06T18:10:15;101589.19;;;20.02;52.98
43824;BME280;29470;53.550;9.926;2022-07-06T18:15:18;101588.06;;;19.77;54.03
43824;BME280;29470;53.550;9.926;2022-07-06T18:20:21;101577.84;;;19.64;54.53
43824;BME280;29470;53.550;9.926;2022-07-06T18:25:25;101569.09;;;19.63;54.94
43824;BME280;29470;53.550;9.926;2022-07-06T18:30:28;101568.72;;;19.75;54.65
43824;BME280;29470;53.550;9.926;2022-07-06T18:35:31;101566.66;;;19.48;55.13
43824;BME280;29470;53.550;9.926;2022-07-06T18:40:35;101561.19;;;19.43;55.33
43824;BME280;29470;53.550;9.926;2022-07-06T18:45:38;101558.53;;;19.42;56.37
43824;BME280;29470;53.550;9.926;2022-07-06T18:50:42;101549.69;;;19.40;56.62
43824;BME280;29470;53.550;9.926;2022-07-06T18:55:47;101549.31;;;19.32;57.00
43824;BME280;29470;53.550;9.926;2022-07-06T19:00:50;101546.63;;;19.31;57.48
43824;BME280;29470;53.550;9.926;2022-07-06T19:05:54;101539.38;;;19.25;57.88
43824;BME280;29470;53.550;9.926;2022-07-06T19:10:58;101549.81;;;19.05;58.71
43824;BME280;29470;53.550;9.926;2022-07-06T19:16:01;101550.03;;;19.10;59.12
43824;BME280;29470;53.550;9.926;2022-07-06T19:21:04;101553.69;;;18.95;60.31
43824;BME280;29470;53.550;9.926;2022-07-06T19:26:08;101548.44;;;18.77;61.28
43824;BME280;29470;53.550;9.926;2022-07-06T19:31:11;101544.78;;;18.74;61.81
43824;BME280;29470;53.550;9.926;2022-07-06T19:36:15;101546.97;;;18.64;62.38
43824;BME280;29470;53.550;9.926;2022-07-06T19:41:19;101549.00;;;18.17;67.99
43824;BME280;29470;53.550;9.926;2022-07-06T19:46:24;101562.44;;;17.90;72.70
43824;BME280;29470;53.550;9.926;2022-07-06T19:51:27;101549.09;;;17.86;75.42
43824;BME280;29470;53.550;9.926;2022-07-06T19:56:31;101541.34;;;17.37;79.64
43824;BME280;29470;53.550;9.926;2022-07-06T20:01:38;101540.78;;;17.12;81.95
43824;BME280;29470;53.550;9.926;2022-07-06T20:06:41;101532.91;;;17.27;82.13
43824;BME280;29470;53.550;9.926;2022-07-06T20:11:45;101528.22;;;16.89;84.51
43824;BME280;29470;53.550;9.926;2022-07-06T20:16:49;101527.38;;;16.74;86.38
43824;BME280;29470;53.550;9.926;2022-07-06T20:21:54;101515.69;;;16.67;87.24
43824;BME280;29470;53.550;9.926;2022-07-06T20:26:58;101499.63;;;16.76;88.35
43824;BME280;29470;53.550;9.926;2022-07-06T20:32:02;101496.59;;;16.68;87.29
43824;BME280;29470;53.550;9.926;2022-07-06T20:37:05;101494.00;;;16.53;88.01
43824;BME280;29470;53.550;9.926;2022-07-06T20:42:09;101486.78;;;16.49;89.86
43824;BME280;29470;53.550;9.926;2022-07-06T20:47:12;101480.44;;;16.75;89.77
43824;BME280;29470;53.550;9.926;2022-07-06T20:52:15;101479.97;;;16.36;89.64
43824;BME280;29470;53.550;9.926;2022-07-06T20:57:20;101477.56;;;16.71;89.40
43824;BME280;29470;53.550;9.926;2022-07-06T21:02:23;101470.94;;;16.46;88.47
43824;BME280;29470;53.550;9.926;2022-07-06T21:07:26;101465.38;;;16.40;88.56
43824;BME280;29470;53.550;9.926;2022-07-06T21:12:30;101464.22;;;16.34;89.06
43824;BME280;29470;53.550;9.926;2022-07-06T21:17:33;101455.50;;;16.34;89.25
43824;BME280;29470;53.550;9.926;2022-07-06T21:22:36;101454.88;;;16.23;89.18
43824;BME280;29470;53.550;9.926;2022-07-06T21:27:40;101443.69;;;16.41;89.96
43824;BME280;29470;53.550;9.926;2022-07-06T21:32:43;101445.22;;;16.37;87.51
43824;BME280;29470;53.550;9.926;2022-07-06T21:37:47;101429.69;;;16.24;88.95
43824;BME280;29470;53.550;9.926;2022-07-06T21:42:51;101422.50;;;16.19;88.56
43824;BME280;29470;53.550;9.926;2022-07-06T21:47:54;101416.75;;;16.42;88.46
43824;BME280;29470;53.550;9.926;2022-07-06T21:52:57;101416.97;;;16.30;87.16
43824;BME280;29470;53.550;9.926;2022-07-06T21:58:02;101411.53;;;16.10;89.12
43824;BME280;29470;53.550;9.926;2022-07-06T22:03:05;101402.34;;;16.02;91.05
43824;BME280;29470;53.550;9.926;2022-07-06T22:08:08;101394.06;;;15.94;92.65
43824;BME280;29470;53.550;9.926;2022-07-06T22:13:12;101380.75;;;16.04;94.03
43824;BME280;29470;53.550;9.926;2022-07-06T22:18:30;101377.53;;;15.94;94.10
43824;BME280;29470;53.550;9.926;2022-07-06T22:23:33;101375.47;;;15.88;94.65
43824;BME280;29470;53.550;9.926;2022-07-06T22:28:37;101354.22;;;15.82;95.98
43824;BME280;29470;53.550;9.926;2022-07-06T22:33:41;101359.28;;;15.79;96.65
43824;BME280;29470;53.550;9.926;2022-07-06T22:38:44;101350.38;;;15.90;96.47
43824;BME280;29470;53.550;9.926;2022-07-06T22:43:48;101342.47;;;15.73;98.03
43824;BME280;29470;53.550;9.926;2022-07-06T22:48:51;101337.66;;;15.96;98.86
43824;BME280;29470;53.550;9.926;2022-07-06T22:53:54;101327.22;;;15.96;99.99
43824;BME280;29470;53.550;9.926;2022-07-06T22:58:58;101317.25;;;16.04;100.00
43824;BME280;29470;53.550;9.926;2022-07-06T23:04:01;101321.94;;;15.65;100.00
43824;BME280;29470;53.550;9.926;2022-07-06T23:09:04;101318.09;;;15.58;100.00
43824;BME280;29470;53.550;9.926;2022-07-06T23:14:08;101305.19;;;15.76;100.00
43824;BME280;29470;53.550;9.926;2022-07-06T23:19:11;101307.47;;;15.70;100.00
43824;BME280;29470;53.550;9.926;2022-07-06T23:24:14;101296.59;;;15.62;100.00
43824;BME280;29470;53.550;9.926;2022-07-06T23:29:18;101292.59;;;15.99;100.00
43824;BME280;29470;53.550;9.926;2022-07-06T23:34:21;101292.00;;;15.88;100.00
43824;BME280;29470;53.550;9.926;2022-07-06T23:39:24;101286.31;;;15.80;100.00
43824;BME280;29470;53.550;9.926;2022-07-06T23:44:29;101273.44;;;15.83;100.00
43824;BME280;29470;53.550;9.926;2022-07-06T23:49:34;101270.06;;;15.69;100.00
43824;BME280;29470;53.550;9.926;2022-07-06T23:54:37;101258.47;;;15.64;100.00
43824;BME280;29470;53.550;9.926;2022-07-06T23:59:42;101248.88;;;15.63;100.00
